Palau, Palau
Current Conditions -  °F | °C
As of 12:19 PM on Sunday 26 Oct 2014 (Local Time) from PTKR Reporting Station
Rain Showers Rain Showers  
Wind Chill: 81°   Ceiling: 1500
Heat Index: 88°   Visibility: 0.5mi
Dew Point: 79°   Wind: 6mph
Humidity: 94%   Direction: 70°ENE
Pressure: 29.84"   Gusts: NA
Location:  7.33°N, 134.48°E
Report Text: PTKR 260319Z 07005KT 1/2SM +SHRA OVC015CB 27/26 A2984 RMK CBALQDS AND OHD
Loading
Personal Weather Stations






























Interactive Weather Map New forecast layout! Learn more

10-Day Weather Forecast

Advertisements
Track Severe Weather on mobile